Карточка аэропорта UATE

Внимание!
Информация на этой странице в стадии наполнения.
Если вы не увидели какой-то информации, или заметили неточность - пожалуйста сообщите нам!
Спасибо!
Команда RU-STAFF
Название аэропортаАктау
Название аэропорта (англ.)Aktau
Превышение75 ft. (22.9 m.)
Координаты43°51.138', 51°5.3639999999999'
Высота перехода10000ft
Эшелон переходаFL120, QNH<733:FL130
Коды ответчика3460-3467, 3550-3557
Зона ОрВДАктобе РПИ (UATT)
Данные METARUATE 271100Z 34003MPS CAVOK 05/M00 Q1011 NOSIG RMK QFE756/1008
Проноз погоды (TAF)UATE 270504Z 2706/2806 03006MPS 9999 SCT011 BKN020CB TX04/2709Z TNM02/2802Z TEMPO 2706/2709 VRB03MPS BECMG 2709/2711 34005G11MPS TEMPO 2709/2713 3100 -SHRA BKN007 BKN015CB
NOTAMshow/hide NOTAM
AWOS   TABLE

Информация о ВПП

ВПП Длина ВПП (м.) Покрытие Курс ВПП Частота ILS
123052Асфальтобетон122109.5
303052Асфальт302111.1

Диспетчерские позиции

Позывной Наименование органа УВД Частота
UATE_APPАктау Поход134.3
UATE_TWRАктау Вышка120.7



Спутниковое изображение